createdAt,value
2023-03-21T00:00:43.763Z,6.30
2023-03-21T00:03:10.591Z,6.40
2023-03-21T00:05:42.497Z,6.80
2023-03-21T00:08:09.787Z,7.43
2023-03-21T00:10:43.786Z,6.38
2023-03-21T00:13:15.814Z,5.40
2023-03-21T00:18:43.027Z,4.20
2023-03-21T00:24:00.889Z,5.53
2023-03-21T00:26:28.162Z,5.32
2023-03-21T00:28:54.887Z,8.80
2023-03-21T00:31:21.726Z,5.55
2023-03-21T00:33:48.618Z,4.63
2023-03-21T00:36:16.200Z,5.22
2023-03-21T00:38:43.161Z,7.10
2023-03-21T00:41:23.270Z,8.30
2023-03-21T00:43:55.784Z,7.68
2023-03-21T00:46:25.121Z,7.05
2023-03-21T00:48:52.253Z,9.35
2023-03-21T00:51:26.160Z,7.03
2023-03-21T00:53:57.661Z,6.53
2023-03-21T00:56:24.693Z,6.47
2023-03-21T00:58:51.418Z,9.80
2023-03-21T01:01:18.841Z,8.15
2023-03-21T01:03:48.286Z,7.25
2023-03-21T01:06:19.713Z,7.50
2023-03-21T01:08:52.732Z,6.05
2023-03-21T01:11:23.137Z,5.93
2023-03-21T01:13:56.215Z,9.20
2023-03-21T01:16:26.474Z,5.93
2023-03-21T01:18:53.296Z,6.22
2023-03-21T01:21:20.065Z,8.38
2023-03-21T01:23:46.921Z,7.15
2023-03-21T01:26:13.854Z,9.45
2023-03-21T01:28:42.168Z,6.68
2023-03-21T01:31:11.574Z,8.50
2023-03-21T01:33:38.792Z,6.95
2023-03-21T01:36:13.053Z,5.38
2023-03-21T01:38:41.716Z,4.88
2023-03-21T01:41:41.655Z,5.35
2023-03-21T01:44:19.964Z,8.32
2023-03-21T01:47:03.977Z,4.82
2023-03-21T01:49:41.072Z,5.28
2023-03-21T01:52:21.003Z,4.43
2023-03-21T01:54:52.693Z,5.82
2023-03-21T01:57:41.243Z,4.97
2023-03-21T02:00:13.065Z,4.85
2023-03-21T02:02:58.252Z,6.05
2023-03-21T02:05:50.939Z,5.95
2023-03-21T02:08:18.388Z,6.13
2023-03-21T02:10:50.596Z,7.93
2023-03-21T02:13:17.715Z,7.73
2023-03-21T02:15:58.252Z,8.27
2023-03-21T02:18:28.197Z,6.50
2023-03-21T02:21:13.529Z,7.47
2023-03-21T02:24:10.740Z,7.35
2023-03-21T02:27:04.101Z,8.43
2023-03-21T02:29:43.341Z,5.57
2023-03-21T02:32:20.237Z,5.88
2023-03-21T02:35:00.939Z,6.18
2023-03-21T02:37:40.307Z,7.30
2023-03-21T02:40:39.814Z,5.13
2023-03-21T02:43:23.506Z,5.90
2023-03-21T02:45:57.615Z,5.22
2023-03-21T02:49:07.074Z,6.28
2023-03-21T02:51:35.985Z,4.53
2023-03-21T02:54:29.975Z,4.28
2023-03-21T02:56:58.329Z,4.32
2023-03-21T02:59:27.132Z,4.40
2023-03-21T03:01:56.389Z,5.78
2023-03-21T03:04:27.513Z,4.15
2023-03-21T03:07:15.818Z,4.72
2023-03-21T03:09:59.956Z,4.70
2023-03-21T03:13:00.610Z,3.90
2023-03-21T03:15:51.881Z,3.58
2023-03-21T03:18:33.762Z,2.53
2023-03-21T03:21:11.187Z,4.00
2023-03-21T03:24:07.017Z,2.80
2023-03-21T03:26:37.649Z,3.67
2023-03-21T03:29:08.949Z,2.85
2023-03-21T03:31:46.432Z,2.85
2023-03-21T03:34:20.730Z,3.05
2023-03-21T03:36:56.321Z,3.33
2023-03-21T03:39:33.854Z,2.85
2023-03-21T03:42:21.478Z,2.42
2023-03-21T03:44:52.824Z,2.28
2023-03-21T03:47:56.363Z,2.53
2023-03-21T03:50:41.637Z,1.90
2023-03-21T03:53:18.595Z,1.98
2023-03-21T03:55:46.222Z,2.25
2023-03-21T03:58:22.915Z,1.80
2023-03-21T04:00:52.392Z,2.08
2023-03-21T04:03:19.194Z,3.22
2023-03-21T04:05:48.641Z,2.85
2023-03-21T04:08:16.505Z,2.58
2023-03-21T04:10:43.922Z,3.53
2023-03-21T04:13:11.270Z,2.83
2023-03-21T04:15:38.220Z,3.25
2023-03-21T04:18:05.040Z,4.38
2023-03-21T04:20:36.974Z,3.75
2023-03-21T04:23:05.602Z,3.42
2023-03-21T04:25:38.620Z,3.22
2023-03-21T04:28:07.268Z,3.53
2023-03-21T04:30:34.317Z,3.80
2023-03-21T04:33:01.341Z,4.95
2023-03-21T04:35:28.682Z,3.47
2023-03-21T04:37:55.964Z,4.63
2023-03-21T04:40:24.808Z,5.45
2023-03-21T04:42:51.704Z,4.10
2023-03-21T04:45:18.385Z,5.40
2023-03-21T04:47:45.550Z,4.38
2023-03-21T04:50:13.850Z,4.10
2023-03-21T04:52:40.745Z,4.32
2023-03-21T04:55:10.635Z,6.65
2023-03-21T04:57:38.594Z,4.55
2023-03-21T05:00:10.795Z,6.25
2023-03-21T05:02:38.851Z,5.40
2023-03-21T05:05:07.068Z,5.38
2023-03-21T05:07:33.875Z,4.90
2023-03-21T05:10:02.409Z,6.38
2023-03-21T05:12:29.518Z,5.28
2023-03-21T05:14:56.355Z,5.40
2023-03-21T05:17:28.577Z,4.97
2023-03-21T05:19:56.645Z,5.47
2023-03-21T05:22:26.930Z,6.30
2023-03-21T05:24:55.421Z,6.03
2023-03-21T05:27:35.837Z,4.55
2023-03-21T05:30:11.773Z,5.53
2023-03-21T05:32:38.948Z,5.40
2023-03-21T05:35:06.420Z,5.88
2023-03-21T05:37:33.231Z,4.63
2023-03-21T05:40:00.059Z,4.30
2023-03-21T05:42:26.861Z,5.90
2023-03-21T05:44:53.737Z,4.25
2023-03-21T05:47:20.612Z,4.38
2023-03-21T05:49:47.470Z,5.22
2023-03-21T05:52:14.269Z,5.53
2023-03-21T05:54:41.184Z,6.43
2023-03-21T05:57:08.506Z,5.90
2023-03-21T05:59:35.491Z,6.53
2023-03-21T06:02:02.371Z,5.70
2023-03-21T06:04:29.349Z,4.18
2023-03-21T06:06:57.885Z,4.95
2023-03-21T06:09:26.195Z,6.13
2023-03-21T06:11:55.707Z,7.07
2023-03-21T06:14:23.984Z,6.22
2023-03-21T06:16:51.206Z,5.70
2023-03-21T06:19:17.964Z,5.30
2023-03-21T06:21:44.730Z,5.93
2023-03-21T06:24:11.561Z,5.10
2023-03-21T06:26:38.428Z,4.78
2023-03-21T06:29:05.447Z,4.32
2023-03-21T06:31:32.254Z,5.38
2023-03-21T06:33:58.988Z,4.20
2023-03-21T06:36:25.804Z,4.57
2023-03-21T06:38:52.650Z,3.78
2023-03-21T06:41:19.493Z,4.55
2023-03-21T06:43:46.403Z,3.13
2023-03-21T06:46:13.115Z,3.17
2023-03-21T06:48:44.541Z,3.40
2023-03-21T06:51:12.874Z,3.92
2023-03-21T06:53:39.836Z,3.50
2023-03-21T06:56:06.856Z,3.30
2023-03-21T06:58:33.562Z,2.83
2023-03-21T07:01:01.839Z,2.53
2023-03-21T07:03:29.253Z,3.15
2023-03-21T07:05:56.247Z,2.70
2023-03-21T07:08:23.032Z,3.22
2023-03-21T07:10:49.937Z,2.70
2023-03-21T07:13:16.787Z,3.30
2023-03-21T07:15:43.515Z,4.03
2023-03-21T07:18:10.493Z,4.15
2023-03-21T07:20:38.243Z,3.20
2023-03-21T07:23:05.854Z,2.80
2023-03-21T07:25:32.787Z,2.80
2023-03-21T07:27:59.560Z,2.50
2023-03-21T07:30:26.389Z,3.50
2023-03-21T07:32:53.544Z,2.60
2023-03-21T07:35:20.533Z,2.28
2023-03-21T07:37:47.243Z,3.08
2023-03-21T07:40:14.068Z,2.42
2023-03-21T07:42:41.538Z,2.53
2023-03-21T07:45:09.815Z,2.50
2023-03-21T07:47:37.048Z,2.50
2023-03-21T07:50:04.656Z,2.13
2023-03-21T07:52:32.039Z,3.13
2023-03-21T07:54:59.125Z,2.40
2023-03-21T07:57:26.236Z,2.78
2023-03-21T07:59:53.006Z,2.58
2023-03-21T08:02:19.774Z,2.28
2023-03-21T08:04:46.892Z,2.40
2023-03-21T08:07:13.979Z,1.90
2023-03-21T08:09:40.933Z,1.70
2023-03-21T08:12:10.809Z,2.25
2023-03-21T08:14:37.900Z,2.00
2023-03-21T08:17:05.898Z,1.70
2023-03-21T08:19:32.829Z,2.25
2023-03-21T08:21:59.998Z,2.50
2023-03-21T08:24:28.285Z,2.20
2023-03-21T08:26:54.992Z,2.17
2023-03-21T08:29:21.993Z,18.83
2023-03-21T08:31:48.917Z,4.45
2023-03-21T08:34:15.658Z,2.80
2023-03-21T08:36:42.330Z,2.40
2023-03-21T08:39:09.007Z,1.75
2023-03-21T08:41:37.486Z,1.60
2023-03-21T08:44:06.465Z,1.13
2023-03-21T08:46:33.780Z,1.30
2023-03-21T08:49:00.497Z,1.20
2023-03-21T08:51:27.375Z,1.20
2023-03-21T08:53:54.097Z,1.20
2023-03-21T08:56:20.770Z,1.27
2023-03-21T08:58:47.568Z,1.30
2023-03-21T09:01:15.947Z,1.77
2023-03-21T09:03:43.639Z,1.20
2023-03-21T09:06:14.307Z,1.40
2023-03-21T09:08:42.158Z,1.63
2023-03-21T09:11:10.444Z,1.40
2023-03-21T09:13:37.242Z,1.60
2023-03-21T09:16:05.356Z,1.00
2023-03-21T09:18:49.000Z,1.30
2023-03-21T09:21:18.550Z,1.40
2023-03-21T09:23:47.122Z,1.35
2023-03-21T09:26:14.001Z,1.38
2023-03-21T09:28:40.971Z,1.00
2023-03-21T09:31:12.368Z,1.48
2023-03-21T09:33:42.721Z,3.33
2023-03-21T09:36:14.512Z,1.60
2023-03-21T09:38:45.139Z,1.38
2023-03-21T09:41:17.758Z,2.80
2023-03-21T09:44:23.008Z,1.48
2023-03-21T09:46:58.437Z,1.20
2023-03-21T09:49:32.984Z,1.02
2023-03-21T09:52:03.675Z,1.48
2023-03-21T09:54:33.933Z,0.90
2023-03-21T09:57:24.948Z,1.40
2023-03-21T09:59:54.955Z,1.15
2023-03-21T10:02:47.262Z,1.00
2023-03-21T10:05:27.194Z,1.20
2023-03-21T10:08:09.008Z,1.50
2023-03-21T10:10:46.518Z,1.30
2023-03-21T10:13:35.494Z,1.25
2023-03-21T10:16:14.265Z,1.63
2023-03-21T10:18:42.989Z,1.65
2023-03-21T10:21:37.365Z,2.20
2023-03-21T10:26:31.066Z,1.15
2023-03-21T10:29:03.484Z,1.20
2023-03-21T10:31:31.236Z,1.65
2023-03-21T10:34:02.644Z,1.65
2023-03-21T10:36:32.929Z,1.20
2023-03-21T10:39:05.222Z,1.20
2023-03-21T10:41:32.678Z,1.60
2023-03-21T10:44:11.936Z,1.48
2023-03-21T10:46:38.815Z,1.60
2023-03-21T10:49:08.203Z,5.72
2023-03-21T10:51:37.961Z,3.10
2023-03-21T10:54:13.666Z,1.10
2023-03-21T10:56:53.549Z,1.40
2023-03-21T10:59:23.425Z,1.38
2023-03-21T11:01:52.458Z,1.15
2023-03-21T11:04:27.949Z,0.98
2023-03-21T11:06:57.732Z,1.50
2023-03-21T11:09:27.959Z,1.45
2023-03-21T11:12:10.576Z,2.85
2023-03-21T11:14:41.757Z,2.50
2023-03-21T11:17:23.853Z,1.88
2023-03-21T11:19:58.508Z,1.63
2023-03-21T11:22:30.521Z,1.80
2023-03-21T11:25:01.097Z,1.60
2023-03-21T11:27:30.541Z,1.70
2023-03-21T11:30:00.046Z,1.73
2023-03-21T11:32:38.620Z,1.50
2023-03-21T11:35:19.882Z,2.03
2023-03-21T11:37:53.295Z,1.73
2023-03-21T11:40:20.176Z,1.58
2023-03-21T11:42:53.001Z,1.20
2023-03-21T11:45:24.072Z,1.20
2023-03-21T11:47:54.005Z,1.40
2023-03-21T11:50:42.857Z,1.10
2023-03-21T11:53:15.553Z,1.48
2023-03-21T11:56:02.010Z,1.20
2023-03-21T11:58:38.584Z,1.50
2023-03-21T12:01:29.946Z,1.00
2023-03-21T12:04:27.409Z,1.00
2023-03-21T12:07:00.763Z,1.13
2023-03-21T12:09:27.428Z,1.10
2023-03-21T12:12:37.919Z,0.88
2023-03-21T12:15:06.223Z,1.00
2023-03-21T12:17:57.760Z,1.02
2023-03-21T12:20:52.793Z,1.70
2023-03-21T12:23:25.629Z,1.20
2023-03-21T12:26:10.658Z,1.48
2023-03-21T12:28:50.330Z,1.08
2023-03-21T12:31:45.217Z,0.93
2023-03-21T12:34:19.831Z,0.90
2023-03-21T12:37:08.325Z,1.00
2023-03-21T12:39:40.528Z,1.00
2023-03-21T12:42:11.835Z,1.37
2023-03-21T12:44:44.615Z,1.20
2023-03-21T12:47:17.909Z,1.00
2023-03-21T12:49:55.436Z,1.05
2023-03-21T12:52:27.455Z,0.82
2023-03-21T12:55:01.976Z,1.20
2023-03-21T12:58:04.453Z,1.00
2023-03-21T13:00:49.882Z,1.70
2023-03-21T13:03:19.597Z,1.30
2023-03-21T13:05:58.410Z,1.10
2023-03-21T13:08:46.721Z,1.35
2023-03-21T13:11:17.972Z,1.60
2023-03-21T13:14:00.178Z,1.27
2023-03-21T13:16:29.523Z,1.33
2023-03-21T13:19:14.540Z,1.13
2023-03-21T13:21:44.146Z,2.05
2023-03-21T13:24:29.140Z,1.38
2023-03-21T13:27:02.580Z,1.08
2023-03-21T13:29:33.470Z,1.50
2023-03-21T13:32:31.284Z,1.17
2023-03-21T13:35:30.061Z,1.23
2023-03-21T13:38:17.420Z,1.58
2023-03-21T13:40:48.682Z,1.85
2023-03-21T13:43:43.311Z,1.58
2023-03-21T13:46:26.802Z,1.25
2023-03-21T13:48:58.752Z,1.70
2023-03-21T13:51:29.303Z,1.30
2023-03-21T13:54:04.565Z,1.77
2023-03-21T13:56:52.713Z,1.20
2023-03-21T13:59:38.130Z,1.50
2023-03-21T14:02:23.333Z,1.15
2023-03-21T14:05:21.465Z,1.55
2023-03-21T14:07:52.847Z,1.67
2023-03-21T14:10:31.230Z,1.55
2023-03-21T14:12:59.112Z,1.63
2023-03-21T14:15:56.428Z,1.50
2023-03-21T14:21:24.946Z,1.33
2023-03-21T14:24:04.202Z,1.40
2023-03-21T14:26:46.004Z,1.40
2023-03-21T14:29:35.061Z,1.40
2023-03-21T14:32:02.852Z,1.60
2023-03-21T14:34:33.500Z,1.58
2023-03-21T14:37:00.437Z,1.40
2023-03-21T14:39:30.914Z,1.52
2023-03-21T14:42:05.155Z,1.23
2023-03-21T14:44:56.201Z,1.92
2023-03-21T14:47:26.411Z,1.52
2023-03-21T14:49:53.752Z,1.48
2023-03-21T14:52:31.809Z,1.65
2023-03-21T14:55:00.105Z,1.80
2023-03-21T14:57:31.061Z,1.20
2023-03-21T15:00:02.059Z,1.58
2023-03-21T15:02:34.629Z,1.75
2023-03-21T15:05:38.004Z,1.52
2023-03-21T15:08:15.621Z,1.50
2023-03-21T15:11:05.954Z,1.38
2023-03-21T15:13:34.654Z,1.20
2023-03-21T15:16:01.595Z,1.20
2023-03-21T15:18:33.569Z,1.20
2023-03-21T15:21:10.569Z,1.48
2023-03-21T15:23:42.477Z,1.55
2023-03-21T15:26:17.366Z,1.50
2023-03-21T15:28:46.995Z,1.67
2023-03-21T15:31:20.561Z,1.63
2023-03-21T15:33:49.199Z,1.52
2023-03-21T15:36:22.338Z,1.48
2023-03-21T15:41:19.455Z,1.40
2023-03-21T15:44:01.735Z,1.27
2023-03-21T15:46:45.511Z,0.93
2023-03-21T15:49:15.627Z,1.00
2023-03-21T15:51:46.297Z,1.00
2023-03-21T15:54:41.291Z,1.02
2023-03-21T15:57:21.780Z,1.05
2023-03-21T15:59:49.127Z,1.10
2023-03-21T16:02:24.634Z,1.35
2023-03-21T16:04:59.852Z,1.00
2023-03-21T16:07:27.015Z,1.73
2023-03-21T16:10:00.510Z,1.52
2023-03-21T16:12:27.765Z,1.40
2023-03-21T16:14:55.636Z,1.80
2023-03-21T16:17:39.813Z,1.40
2023-03-21T16:20:35.763Z,1.30
2023-03-21T16:23:02.984Z,1.40
2023-03-21T16:25:30.687Z,1.27
2023-03-21T16:27:57.493Z,1.00
2023-03-21T16:30:24.883Z,1.05
2023-03-21T16:32:51.999Z,1.30
2023-03-21T16:35:18.850Z,1.85
2023-03-21T16:37:48.437Z,1.50
2023-03-21T16:40:24.304Z,1.35
2023-03-21T16:42:51.127Z,1.67
2023-03-21T16:45:17.951Z,1.40
2023-03-21T16:47:45.533Z,1.70
2023-03-21T16:50:28.523Z,1.90
2023-03-21T16:52:56.344Z,1.58
2023-03-21T16:55:23.404Z,1.48
2023-03-21T16:57:53.876Z,1.50
2023-03-21T17:00:24.383Z,1.65
2023-03-21T17:02:53.556Z,1.42
2023-03-21T17:05:27.749Z,1.77
2023-03-21T17:07:55.044Z,2.45
2023-03-21T17:10:26.610Z,1.65
2023-03-21T17:12:53.602Z,2.45
2023-03-21T17:15:20.972Z,1.75
2023-03-21T17:17:50.157Z,1.85
2023-03-21T17:20:21.495Z,1.55
2023-03-21T17:22:48.940Z,1.52
2023-03-21T17:25:17.454Z,2.00
2023-03-21T17:27:44.910Z,2.20
2023-03-21T17:30:22.725Z,1.80
2023-03-21T17:32:50.958Z,1.27
2023-03-21T17:35:18.179Z,2.15
2023-03-21T17:37:50.482Z,1.63
2023-03-21T17:40:23.017Z,1.57
2023-03-21T17:42:51.623Z,2.05
2023-03-21T17:45:19.383Z,1.77
2023-03-21T17:47:46.887Z,1.65
2023-03-21T17:50:21.165Z,1.60
2023-03-21T17:52:50.640Z,1.77
2023-03-21T17:55:19.710Z,1.90
2023-03-21T17:57:47.111Z,1.60
2023-03-21T18:00:25.881Z,1.50
2023-03-21T18:02:53.338Z,1.73
2023-03-21T18:05:21.634Z,1.70
2023-03-21T18:10:37.157Z,1.50
2023-03-21T18:13:04.024Z,1.40
2023-03-21T18:15:31.215Z,1.67
2023-03-21T18:17:58.559Z,1.30
2023-03-21T18:20:49.870Z,1.40
2023-03-21T18:23:15.507Z,1.70
2023-03-21T18:25:42.252Z,1.85
2023-03-21T18:28:12.009Z,1.73
2023-03-21T18:33:27.555Z,1.85
2023-03-21T18:35:59.100Z,2.10
2023-03-21T18:38:27.850Z,2.25
2023-03-21T18:40:55.490Z,2.00
2023-03-21T18:46:09.348Z,2.25
2023-03-21T18:48:36.724Z,2.13
2023-03-21T18:51:04.214Z,1.48
2023-03-21T18:53:31.102Z,1.60
2023-03-21T18:55:57.903Z,1.30
2023-03-21T18:58:25.653Z,1.42
2023-03-21T19:00:54.038Z,1.75
2023-03-21T19:03:35.211Z,2.13
2023-03-21T19:06:04.159Z,2.30
2023-03-21T19:08:31.273Z,2.38
2023-03-21T19:11:03.333Z,2.53
2023-03-21T19:13:33.676Z,2.28
2023-03-21T19:16:02.430Z,2.35
2023-03-21T19:18:53.018Z,1.70
2023-03-21T19:21:19.385Z,2.20
2023-03-21T19:26:33.446Z,1.73
2023-03-21T19:29:00.115Z,1.83
2023-03-21T19:31:27.303Z,1.90
2023-03-21T19:33:54.130Z,1.42
2023-03-21T19:36:22.676Z,1.90
2023-03-21T19:38:50.636Z,1.80
2023-03-21T19:41:18.297Z,1.83
2023-03-21T19:43:53.623Z,1.73
2023-03-21T19:46:24.972Z,2.20
2023-03-21T19:48:56.122Z,2.10
2023-03-21T19:51:28.823Z,1.50
2023-03-21T19:53:57.626Z,1.60
2023-03-21T19:56:26.984Z,1.30
2023-03-21T19:58:55.327Z,1.70
2023-03-21T20:01:23.113Z,1.40
2023-03-21T20:03:50.054Z,1.50
2023-03-21T20:06:16.865Z,2.78
2023-03-21T20:09:13.729Z,3.88
2023-03-21T20:11:30.341Z,2.10
2023-03-21T20:13:58.485Z,2.45
2023-03-21T20:16:25.373Z,3.42
2023-03-21T20:18:52.648Z,2.17
2023-03-21T20:21:25.428Z,2.65
2023-03-21T20:26:19.592Z,2.25
2023-03-21T20:28:56.461Z,2.30
2023-03-21T20:31:30.850Z,2.97
2023-03-21T20:33:57.671Z,2.80
2023-03-21T20:36:38.795Z,3.00
2023-03-21T20:39:06.848Z,2.10
2023-03-21T20:41:33.655Z,1.85
2023-03-21T20:46:49.940Z,2.08
2023-03-21T20:49:16.854Z,2.13
2023-03-21T20:54:31.632Z,1.80
2023-03-21T20:56:58.325Z,1.92
2023-03-21T20:59:27.915Z,2.10
2023-03-21T21:01:57.554Z,1.67
2023-03-21T21:04:44.195Z,2.83
2023-03-21T21:07:15.950Z,2.22
2023-03-21T21:09:44.746Z,2.75
2023-03-21T21:12:14.009Z,2.28
2023-03-21T21:14:41.860Z,1.70
2023-03-21T21:19:56.897Z,1.95
2023-03-21T21:22:23.658Z,3.40
2023-03-21T21:24:50.353Z,2.00
2023-03-21T21:27:17.121Z,2.58
2023-03-21T21:29:47.767Z,1.95
2023-03-21T21:32:17.120Z,1.70
2023-03-21T21:34:44.106Z,2.10
2023-03-21T21:37:10.786Z,2.50
2023-03-21T21:39:38.693Z,2.50
2023-03-21T21:42:05.856Z,2.50
2023-03-21T21:44:32.590Z,2.45
2023-03-21T21:46:59.515Z,2.20
2023-03-21T21:49:27.101Z,2.35
2023-03-21T21:51:53.867Z,2.05
2023-03-21T21:54:20.581Z,2.28
2023-03-21T21:56:54.295Z,1.98
2023-03-21T21:59:22.388Z,2.28
2023-03-21T22:01:51.433Z,2.08
2023-03-21T22:04:27.944Z,2.03
2023-03-21T22:06:57.731Z,1.92
2023-03-21T22:09:24.421Z,2.03
2023-03-21T22:11:51.482Z,2.05
2023-03-21T22:14:18.191Z,2.05
2023-03-21T22:16:46.850Z,1.95
2023-03-21T22:19:13.784Z,3.00
2023-03-21T22:21:40.742Z,3.08
2023-03-21T22:24:07.584Z,2.45
2023-03-21T22:26:34.413Z,3.20
2023-03-21T22:29:01.817Z,3.10
2023-03-21T22:31:28.724Z,3.70
2023-03-21T22:33:55.543Z,3.10
2023-03-21T22:36:22.201Z,3.67
2023-03-21T22:38:48.885Z,3.60
2023-03-21T22:41:15.643Z,3.42
2023-03-21T22:43:42.364Z,3.65
2023-03-21T22:46:09.140Z,2.53
2023-03-21T22:48:36.057Z,4.07
2023-03-21T22:51:02.780Z,3.10
2023-03-21T22:53:29.645Z,4.05
2023-03-21T22:55:56.384Z,3.60
2023-03-21T22:58:23.677Z,4.70
2023-03-21T23:00:50.504Z,3.88
2023-03-21T23:03:17.457Z,3.63
2023-03-21T23:05:45.768Z,4.38
2023-03-21T23:08:13.452Z,4.13
2023-03-21T23:10:43.917Z,4.45
2023-03-21T23:13:10.968Z,4.85
2023-03-21T23:15:41.221Z,4.28
2023-03-21T23:18:08.123Z,4.72
2023-03-21T23:20:35.108Z,4.85
2023-03-21T23:23:02.159Z,4.55
2023-03-21T23:25:34.179Z,3.63
2023-03-21T23:28:01.036Z,3.92
2023-03-21T23:30:27.780Z,4.20
2023-03-21T23:32:54.477Z,3.55
2023-03-21T23:35:21.431Z,3.78
2023-03-21T23:37:50.246Z,4.13
2023-03-21T23:40:17.037Z,3.63
2023-03-21T23:42:43.786Z,4.18
2023-03-21T23:45:11.146Z,3.45
2023-03-21T23:47:39.338Z,4.80
2023-03-21T23:50:07.926Z,4.07
2023-03-21T23:52:34.748Z,2.67
2023-03-21T23:55:01.449Z,3.35
2023-03-21T23:57:28.198Z,2.90
2023-03-21T23:59:55.907Z,3.05
